Time;durP1;ratioP1;P1;durP2;ratioP2;P2;SDS_P1;SDS_P2;PMS_P1;PMS_P2;Temp;Humidity;BMP_temperature;BMP_pressure;BME280_temperature;BME280_humidity;BME280_pressure;Samples;Min_cycle;Max_cycle;Signal;HPM_P1;HPM_P2
2021/04/28 00:01:52;;;;;;;7.38;3.30;;;9.80;74.10;;;;;;6126492;23;20341;-87
2021/04/28 00:04:18;;;;;;;6.25;3.38;;;9.80;74.00;;;;;;6126665;23;20024;-88
2021/04/28 00:06:45;;;;;;;7.13;3.40;;;9.70;74.00;;;;;;6126823;23;20125;-88
2021/04/28 00:09:11;;;;;;;5.65;3.20;;;9.70;74.30;;;;;;6127339;23;20338;-88
2021/04/28 00:11:38;;;;;;;7.35;3.33;;;9.60;74.30;;;;;;6126966;23;20398;-88
2021/04/28 00:14:05;;;;;;;7.95;3.38;;;9.60;74.20;;;;;;6126006;23;20037;-87
2021/04/28 00:16:32;;;;;;;6.35;3.65;;;9.50;74.40;;;;;;6127034;23;20014;-87
2021/04/28 00:18:57;;;;;;;6.63;3.47;;;9.50;74.30;;;;;;6126702;23;20022;-88
2021/04/28 00:21:24;;;;;;;7.90;3.65;;;9.40;74.40;;;;;;6126812;23;20014;-88
2021/04/28 00:23:54;;;;;;;7.05;3.50;;;9.40;74.60;;;;;;6127249;23;20339;-87
2021/04/28 00:26:21;;;;;;;7.00;3.50;;;9.40;74.90;;;;;;6127569;23;20089;-87
2021/04/28 00:28:47;;;;;;;6.75;3.42;;;9.30;75.00;;;;;;6126056;23;20025;-88
2021/04/28 00:31:13;;;;;;;6.45;3.60;;;9.30;75.30;;;;;;6127375;23;20022;-86
2021/04/28 00:33:39;;;;;;;8.20;3.90;;;9.30;75.20;;;;;;6126449;23;20014;-87
2021/04/28 00:36:06;;;;;;;5.45;3.20;;;9.30;75.50;;;;;;6126646;23;20079;-88
2021/04/28 00:38:33;;;;;;;8.02;3.67;;;9.30;75.70;;;;;;6127079;23;20037;-88
2021/04/28 00:41:04;;;;;;;5.85;3.20;;;9.30;75.60;;;;;;6127499;23;20025;-87
2021/04/28 00:43:30;;;;;;;7.53;3.22;;;9.30;76.00;;;;;;6126786;23;20018;-88
2021/04/28 00:45:57;;;;;;;6.95;3.50;;;9.20;75.70;;;;;;6126924;23;20438;-88
2021/04/28 00:48:23;;;;;;;9.15;3.58;;;9.20;75.60;;;;;;6127157;23;20033;-88
2021/04/28 00:50:55;;;;;;;5.97;3.10;;;9.10;74.90;;;;;;6125897;23;20389;-87
2021/04/28 00:53:23;;;;;;;6.13;3.50;;;9.10;74.50;;;;;;6126921;23;20018;-87
2021/04/28 00:55:49;;;;;;;7.53;3.30;;;9.00;74.80;;;;;;6126103;23;20076;-87
2021/04/28 00:58:15;;;;;;;6.03;3.28;;;9.00;74.90;;;;;;6126881;23;20021;-86
2021/04/28 01:00:42;;;;;;;5.88;3.28;;;9.00;74.80;;;;;;6126869;23;20029;-87
2021/04/28 01:03:07;;;;;;;7.03;3.50;;;8.90;75.30;;;;;;6125062;23;20342;-86
2021/04/28 01:05:34;;;;;;;8.52;3.05;;;8.90;75.40;;;;;;6126075;23;20021;-85
2021/04/28 01:08:01;;;;;;;7.90;3.42;;;8.80;74.80;;;;;;6127019;23;20342;-87
2021/04/28 01:10:28;;;;;;;6.40;3.15;;;8.70;74.90;;;;;;6126058;23;20319;-85
2021/04/28 01:12:56;;;;;;;6.45;3.42;;;8.70;75.20;;;;;;6126403;23;20461;-87
2021/04/28 01:15:25;;;;;;;8.40;3.50;;;8.60;75.40;;;;;;6100249;23;20060;-86
2021/04/28 01:17:51;;;;;;;6.28;3.13;;;8.60;75.70;;;;;;6125032;23;20029;-87
2021/04/28 01:20:19;;;;;;;5.95;3.00;;;8.60;75.20;;;;;;6126637;23;20465;-87
2021/04/28 01:22:47;;;;;;;6.65;3.22;;;8.60;75.40;;;;;;6127240;23;20064;-88
2021/04/28 01:25:17;;;;;;;6.88;3.63;;;8.50;75.60;;;;;;6126076;23;20470;-88
2021/04/28 01:27:49;;;;;;;5.45;3.25;;;8.50;75.90;;;;;;6127120;23;20370;-88
2021/04/28 01:30:15;;;;;;;5.53;2.97;;;8.50;76.00;;;;;;6126334;23;20021;-88
2021/04/28 01:32:46;;;;;;;5.70;3.10;;;8.40;75.70;;;;;;6126158;23;20021;-88
2021/04/28 01:35:16;;;;;;;8.10;3.60;;;8.40;75.90;;;;;;6127182;23;20022;-88
2021/04/28 01:37:43;;;;;;;7.70;3.47;;;8.30;75.80;;;;;;6127184;23;20038;-88
2021/04/28 01:40:16;;;;;;;5.55;3.00;;;8.30;75.90;;;;;;6126302;23;20117;-87
2021/04/28 01:42:49;;;;;;;5.88;3.13;;;8.30;76.00;;;;;;6126724;23;20014;-89
2021/04/28 01:45:16;;;;;;;6.88;3.22;;;8.20;76.10;;;;;;6126722;23;20022;-85
2021/04/28 01:47:42;;;;;;;5.45;3.10;;;8.20;76.20;;;;;;6127091;23;20021;-86
2021/04/28 01:50:11;;;;;;;6.15;2.85;;;8.20;76.20;;;;;;6127570;23;20434;-85
2021/04/28 01:52:37;;;;;;;5.25;2.70;;;8.20;76.20;;;;;;6127245;23;20046;-87
2021/04/28 01:55:05;;;;;;;5.95;2.90;;;8.10;76.10;;;;;;6142250;23;20018;-87
2021/04/28 01:57:31;;;;;;;4.80;2.60;;;8.10;75.90;;;;;;6142077;23;20076;-86
2021/04/28 01:59:57;;;;;;;6.00;3.35;;;8.00;76.00;;;;;;6132637;23;20084;-86
2021/04/28 02:02:24;;;;;;;6.05;2.95;;;8.00;75.90;;;;;;6126567;23;20017;-87
2021/04/28 02:04:50;;;;;;;8.93;3.05;;;8.00;76.10;;;;;;6126515;23;20018;-86
2021/04/28 02:07:16;;;;;;;9.63;3.28;;;7.90;76.10;;;;;;6125367;23;20018;-86
2021/04/28 02:09:41;;;;;;;4.80;2.47;;;7.90;76.00;;;;;;6126301;23;20024;-86
2021/04/28 02:12:11;;;;;;;6.57;3.05;;;7.90;76.10;;;;;;6126619;23;20010;-86
2021/04/28 02:14:39;;;;;;;5.65;3.17;;;7.80;76.10;;;;;;6125180;23;20018;-86
2021/04/28 02:17:05;;;;;;;5.75;2.92;;;7.80;76.30;;;;;;6125914;23;20022;-86
2021/04/28 02:19:41;;;;;;;5.55;2.70;;;7.80;76.20;;;;;;6126007;23;20028;-85
2021/04/28 02:22:07;;;;;;;7.05;3.13;;;7.70;76.10;;;;;;6125402;23;20048;-86
2021/04/28 02:24:46;;;;;;;5.78;2.60;;;7.70;76.30;;;;;;6125555;23;20022;-85
2021/04/28 02:27:14;;;;;;;7.57;2.78;;;7.70;76.20;;;;;;6124641;23;20473;-85
2021/04/28 02:29:40;;;;;;;6.40;2.80;;;7.70;75.70;;;;;;6125668;23;20022;-86
2021/04/28 02:32:06;;;;;;;5.40;2.55;;;7.60;76.00;;;;;;6126292;23;20085;-86
2021/04/28 02:34:32;;;;;;;6.70;3.03;;;7.60;75.80;;;;;;6124626;23;20018;-86
2021/04/28 02:37:01;;;;;;;7.03;2.70;;;7.60;75.70;;;;;;6099603;23;20020;-87
2021/04/28 02:39:40;;;;;;;6.38;2.83;;;7.50;75.90;;;;;;6126510;23;20057;-87
2021/04/28 02:42:07;;;;;;;6.63;3.28;;;7.50;75.90;;;;;;6125075;23;20458;-87
2021/04/28 02:44:34;;;;;;;6.03;2.85;;;7.50;75.90;;;;;;6125927;23;20093;-85
2021/04/28 02:47:03;;;;;;;4.88;2.72;;;7.50;76.00;;;;;;6126433;23;20014;-85
2021/04/28 02:49:30;;;;;;;5.70;2.90;;;7.40;75.90;;;;;;6125538;23;20029;-86
2021/04/28 02:51:57;;;;;;;6.40;2.72;;;7.40;76.00;;;;;;6125953;23;20060;-85
2021/04/28 02:54:23;;;;;;;6.03;3.20;;;7.50;76.20;;;;;;6125438;23;20024;-86
2021/04/28 02:56:52;;;;;;;5.25;2.72;;;7.40;76.00;;;;;;6124395;23;20010;-85
2021/04/28 02:59:19;;;;;;;6.00;2.95;;;7.40;75.90;;;;;;6126281;23;20045;-85
2021/04/28 03:01:47;;;;;;;6.28;2.80;;;7.40;75.90;;;;;;6126005;23;20018;-87
2021/04/28 03:04:15;;;;;;;5.28;2.90;;;7.30;75.50;;;;;;6125177;23;20040;-86
2021/04/28 03:06:41;;;;;;;5.32;2.58;;;7.30;75.60;;;;;;6125927;23;20014;-86
2021/04/28 03:09:07;;;;;;;4.85;2.50;;;7.30;75.70;;;;;;6125997;23;20068;-85
2021/04/28 03:11:35;;;;;;;5.07;2.65;;;7.30;76.00;;;;;;6124638;23;20020;-85
2021/04/28 03:14:02;;;;;;;6.53;3.10;;;7.20;76.10;;;;;;6125702;23;20049;-85
2021/04/28 03:16:29;;;;;;;7.53;2.83;;;7.20;76.30;;;;;;6125029;23;20018;-86
2021/04/28 03:18:55;;;;;;;5.60;2.70;;;7.20;76.30;;;;;;6125162;23;20101;-86
2021/04/28 03:21:24;;;;;;;4.80;2.15;;;7.10;76.40;;;;;;6125842;23;20042;-86
2021/04/28 03:23:50;;;;;;;4.70;2.70;;;7.10;76.60;;;;;;6124785;23;20093;-85
2021/04/28 03:26:16;;;;;;;6.07;2.53;;;7.10;76.70;;;;;;6126157;23;20089;-85
2021/04/28 03:28:41;;;;;;;4.70;2.72;;;7.10;76.70;;;;;;6125191;23;20532;-85
2021/04/28 03:31:07;;;;;;;5.28;2.60;;;7.10;76.80;;;;;;6125247;23;20018;-85
2021/04/28 03:33:33;;;;;;;5.03;2.70;;;7.10;76.40;;;;;;6124859;23;20025;-84
2021/04/28 03:35:59;;;;;;;4.20;2.40;;;7.10;76.30;;;;;;6099682;23;20399;-85
2021/04/28 03:38:24;;;;;;;6.57;2.45;;;7.10;76.20;;;;;;6125167;23;20382;-84
2021/04/28 03:40:50;;;;;;;5.03;2.50;;;7.10;76.50;;;;;;6125476;23;20442;-85
2021/04/28 03:43:17;;;;;;;5.38;2.78;;;7.10;76.30;;;;;;6126313;23;20040;-87
2021/04/28 03:45:43;;;;;;;6.78;2.78;;;7.00;76.30;;;;;;6125964;23;20018;-87
2021/04/28 03:48:09;;;;;;;5.95;2.40;;;7.00;76.30;;;;;;6127955;23;20088;-86
2021/04/28 03:50:34;;;;;;;5.13;2.63;;;7.00;76.20;;;;;;6127533;23;20025;-86
2021/04/28 03:53:00;;;;;;;4.72;2.60;;;6.90;76.30;;;;;;6126738;23;20502;-86
2021/04/28 03:55:26;;;;;;;5.55;2.60;;;6.90;76.20;;;;;;6127085;23;20056;-87
2021/04/28 03:57:51;;;;;;;5.63;2.63;;;6.90;76.30;;;;;;6127197;23;20032;-86
2021/04/28 04:00:18;;;;;;;4.53;2.15;;;6.90;76.40;;;;;;6126629;23;20021;-87
2021/04/28 04:02:43;;;;;;;8.80;2.80;;;6.80;76.50;;;;;;6126750;23;20459;-87
2021/04/28 04:05:12;;;;;;;5.28;2.35;;;6.80;76.40;;;;;;6127506;23;20025;-87
2021/04/28 04:07:38;;;;;;;7.43;2.85;;;6.80;76.20;;;;;;6126288;23;20393;-87
2021/04/28 04:10:05;;;;;;;5.43;2.42;;;6.80;76.50;;;;;;6127198;23;20034;-87
2021/04/28 04:12:31;;;;;;;5.10;2.25;;;6.80;76.50;;;;;;6127029;23;20020;-87
2021/04/28 04:14:56;;;;;;;4.95;2.30;;;6.80;76.60;;;;;;6126711;23;20360;-87
2021/04/28 04:17:23;;;;;;;5.28;2.50;;;6.80;76.30;;;;;;6126917;23;20045;-87
2021/04/28 04:19:48;;;;;;;4.70;2.38;;;6.70;76.00;;;;;;6125595;23;20454;-87
2021/04/28 04:22:16;;;;;;;6.75;2.33;;;6.70;76.30;;;;;;6126915;23;20018;-87
2021/04/28 04:24:43;;;;;;;4.80;2.05;;;6.70;75.80;;;;;;6126989;23;20060;-88
2021/04/28 04:27:11;;;;;;;5.68;2.35;;;6.60;76.20;;;;;;6126089;23;20018;-87
2021/04/28 04:29:52;;;;;;;4.93;2.40;;;6.70;76.30;;;;;;6125675;23;20040;-88
2021/04/28 04:32:18;;;;;;;4.85;2.42;;;6.60;76.10;;;;;;6127106;23;20021;-87
2021/04/28 04:34:49;;;;;;;4.53;2.50;;;6.60;76.10;;;;;;6126139;23;20010;-87
2021/04/28 04:37:23;;;;;;;6.00;2.40;;;6.60;76.40;;;;;;6127120;23;20018;-87
2021/04/28 04:39:58;;;;;;;6.45;2.53;;;6.60;77.00;;;;;;6126687;23;20025;-87
2021/04/28 04:42:24;;;;;;;7.13;2.60;;;6.60;77.10;;;;;;6126325;23;20020;-87
2021/04/28 04:44:56;;;;;;;5.95;2.55;;;6.60;77.30;;;;;;6126916;23;20092;-87
2021/04/28 04:47:21;;;;;;;4.97;2.47;;;6.60;77.00;;;;;;6127455;23;20073;-88
2021/04/28 04:49:47;;;;;;;7.20;2.88;;;6.60;76.90;;;;;;6125521;23;20021;-87
2021/04/28 04:52:19;;;;;;;4.85;2.15;;;6.60;77.30;;;;;;6127220;23;20486;-87
2021/04/28 04:54:47;;;;;;;6.13;2.25;;;6.60;77.90;;;;;;6126883;23;20073;-87
2021/04/28 04:57:22;;;;;;;7.05;2.45;;;6.60;77.00;;;;;;6126138;23;20390;-86
2021/04/28 04:59:47;;;;;;;5.80;2.85;;;6.60;77.20;;;;;;6125609;23;20123;-87
2021/04/28 05:02:13;;;;;;;5.65;2.22;;;6.60;77.30;;;;;;6126140;23;20014;-87
2021/04/28 05:04:48;;;;;;;5.68;2.50;;;6.50;76.80;;;;;;6126984;23;20018;-87
2021/04/28 05:07:14;;;;;;;6.93;2.85;;;6.60;77.00;;;;;;6126424;23;20328;-86
2021/04/28 05:09:44;;;;;;;6.97;2.65;;;6.60;77.30;;;;;;6125628;23;20014;-87
2021/04/28 05:12:25;;;;;;;5.30;2.58;;;6.60;77.10;;;;;;6126255;23;20037;-86
2021/04/28 05:14:51;;;;;;;5.75;2.60;;;6.60;76.70;;;;;;6125365;23;20085;-86
2021/04/28 05:17:26;;;;;;;4.93;2.70;;;6.50;76.90;;;;;;6125466;23;20050;-86
2021/04/28 05:20:06;;;;;;;6.35;2.50;;;6.50;77.00;;;;;;6126328;23;20093;-86
2021/04/28 05:22:31;;;;;;;5.07;2.60;;;6.50;77.20;;;;;;6126893;23;20026;-87
2021/04/28 05:25:12;;;;;;;4.97;2.53;;;6.50;76.70;;;;;;6125587;23;20057;-87
2021/04/28 05:27:38;;;;;;;6.78;2.58;;;6.50;77.10;;;;;;6126839;23;20028;-87
2021/04/28 05:30:05;;;;;;;5.95;2.50;;;6.50;76.60;;;;;;6126020;23;20033;-88
2021/04/28 05:32:31;;;;;;;4.82;2.50;;;6.50;76.90;;;;;;6127049;23;20040;-87
2021/04/28 05:34:57;;;;;;;5.32;2.50;;;6.40;76.70;;;;;;6126894;23;20438;-87
2021/04/28 05:37:38;;;;;;;4.75;2.55;;;6.40;76.90;;;;;;6125053;23;20017;-86
2021/04/28 05:40:08;;;;;;;6.30;2.90;;;6.40;77.00;;;;;;6124938;23;20450;-85
2021/04/28 05:42:35;;;;;;;6.35;2.80;;;6.40;77.30;;;;;;6126209;23;20018;-84
2021/04/28 05:45:06;;;;;;;5.28;2.80;;;6.50;77.40;;;;;;6122041;23;20069;-83
2021/04/28 05:47:31;;;;;;;5.55;3.13;;;6.50;77.30;;;;;;6124773;23;20073;-85
2021/04/28 05:49:58;;;;;;;5.60;2.67;;;6.50;77.40;;;;;;6125695;23;20022;-85
2021/04/28 05:52:24;;;;;;;5.47;2.58;;;6.50;77.50;;;;;;6125619;23;20022;-84
2021/04/28 05:54:49;;;;;;;5.95;2.53;;;6.50;77.70;;;;;;6125620;23;20197;-84
2021/04/28 05:57:16;;;;;;;8.40;3.15;;;6.50;78.00;;;;;;6126392;23;20022;-83
2021/04/28 05:59:43;;;;;;;4.60;2.58;;;6.50;78.10;;;;;;6125427;23;20048;-83
2021/04/28 06:02:10;;;;;;;5.82;2.70;;;6.50;78.10;;;;;;6126623;23;20038;-83
2021/04/28 06:04:36;;;;;;;5.53;2.78;;;6.50;77.90;;;;;;6124809;23;20092;-83
2021/04/28 06:07:08;;;;;;;4.75;2.40;;;6.60;77.70;;;;;;6125755;23;20469;-88
2021/04/28 06:09:36;;;;;;;8.25;2.95;;;6.60;77.70;;;;;;6125882;23;20052;-88
2021/04/28 06:12:07;;;;;;;6.47;2.60;;;6.60;77.70;;;;;;6126734;23;20041;-86
2021/04/28 06:15:18;;;;;;;5.40;2.70;;;6.60;77.70;;;;;;6116824;23;20048;-86
2021/04/28 06:17:56;;;;;;;5.13;2.75;;;6.60;77.00;;;;;;6121594;23;20073;-87
2021/04/28 06:20:23;;;;;;;6.38;2.83;;;6.60;77.50;;;;;;6124434;23;20085;-88
2021/04/28 06:23:01;;;;;;;7.35;3.13;;;6.70;77.40;;;;;;6126371;23;20458;-88
2021/04/28 06:25:29;;;;;;;7.55;2.85;;;6.80;77.60;;;;;;6125472;23;20076;-88
2021/04/28 06:27:55;;;;;;;5.68;2.70;;;6.90;76.90;;;;;;6125528;23;20022;-89
2021/04/28 06:30:21;;;;;;;6.35;2.88;;;7.00;77.00;;;;;;6126799;23;20013;-89
2021/04/28 06:32:49;;;;;;;7.93;2.85;;;7.10;77.00;;;;;;6125900;23;20334;-88
2021/04/28 06:35:27;;;;;;;6.05;2.97;;;7.20;77.10;;;;;;6128278;23;20018;-88
2021/04/28 06:37:58;;;;;;;7.75;3.00;;;7.30;77.10;;;;;;6135185;23;20022;-90
2021/04/28 06:40:35;;;;;;;7.68;3.00;;;7.50;77.20;;;;;;6134106;23;20371;-89
2021/04/28 06:43:04;;;;;;;6.72;2.90;;;7.60;77.10;;;;;;6130466;23;20481;-89
2021/04/28 06:45:30;;;;;;;6.32;2.92;;;7.70;76.80;;;;;;6126830;23;20096;-89
2021/04/28 06:48:03;;;;;;;5.70;3.10;;;7.80;76.40;;;;;;6123840;23;20041;-88
2021/04/28 06:50:29;;;;;;;7.18;3.08;;;7.90;76.10;;;;;;6127543;23;20018;-88
2021/04/28 06:53:04;;;;;;;6.53;3.13;;;8.00;75.60;;;;;;6126675;23;20140;-88
2021/04/28 06:55:31;;;;;;;6.53;2.80;;;8.10;74.90;;;;;;6125576;23;20014;-90
2021/04/28 06:57:57;;;;;;;6.00;3.20;;;8.10;74.70;;;;;;6126059;23;20476;-89
2021/04/28 07:00:26;;;;;;;6.00;3.08;;;8.20;74.90;;;;;;6126087;23;20044;-90
2021/04/28 07:02:53;;;;;;;6.22;3.25;;;8.30;75.40;;;;;;6128702;23;20022;-92
2021/04/28 07:05:23;;;;;;;7.13;3.40;;;8.40;75.60;;;;;;6129199;23;20014;-93
2021/04/28 07:07:50;;;;;;;6.35;3.58;;;8.50;75.20;;;;;;6129004;23;20014;-91
2021/04/28 07:10:25;;;;;;;8.68;3.15;;;8.60;75.20;;;;;;6127250;23;20018;-89
2021/04/28 07:12:52;;;;;;;6.30;3.13;;;8.70;74.40;;;;;;6130645;23;20033;-91
2021/04/28 07:15:18;;;;;;;7.13;3.33;;;8.70;74.20;;;;;;6133598;23;20509;-91
2021/04/28 07:17:52;;;;;;;6.22;3.35;;;8.80;73.80;;;;;;6128380;23;20049;-91
2021/04/28 07:20:24;;;;;;;8.73;3.42;;;8.90;73.70;;;;;;6129092;23;20018;-91
2021/04/28 07:22:56;;;;;;;6.53;3.20;;;9.00;73.80;;;;;;6128475;23;20022;-91
2021/04/28 07:25:23;;;;;;;5.38;3.33;;;9.10;73.30;;;;;;6130351;23;20014;-91
2021/04/28 07:27:49;;;;;;;7.43;3.63;;;9.10;73.30;;;;;;6130437;23;20018;-90
2021/04/28 07:30:19;;;;;;;6.78;3.40;;;9.20;73.30;;;;;;6129294;23;20029;-91
2021/04/28 07:32:51;;;;;;;6.93;3.60;;;9.30;72.60;;;;;;6129776;23;20048;-91
2021/04/28 07:35:22;;;;;;;6.88;3.40;;;9.40;72.40;;;;;;6131254;23;20032;-91
2021/04/28 07:37:48;;;;;;;7.70;3.58;;;9.50;73.20;;;;;;6134067;23;20370;-92
2021/04/28 07:40:20;;;;;;;6.85;3.58;;;9.60;73.70;;;;;;6130967;23;20060;-90
2021/04/28 07:42:52;;;;;;;7.93;4.00;;;9.60;73.60;;;;;;6129231;23;20426;-93
2021/04/28 07:45:19;;;;;;;6.18;3.38;;;9.80;73.90;;;;;;6128719;23;20679;-92
2021/04/28 07:47:54;;;;;;;6.93;3.58;;;9.80;74.20;;;;;;6128821;23;20396;-90
2021/04/28 07:50:19;;;;;;;6.90;3.42;;;9.90;73.80;;;;;;6128491;23;20022;-89
2021/04/28 07:52:54;;;;;;;6.90;3.60;;;10.10;73.70;;;;;;6127388;23;20020;-87
2021/04/28 07:55:25;;;;;;;8.57;3.80;;;10.20;74.20;;;;;;6129162;23;20034;-93
2021/04/28 07:57:51;;;;;;;9.07;3.78;;;10.30;72.80;;;;;;6127300;23;20018;-88
2021/04/28 08:00:20;;;;;;;6.55;3.65;;;10.40;73.00;;;;;;6127842;23;20026;-91
2021/04/28 08:02:58;;;;;;;6.85;3.65;;;10.50;72.90;;;;;;6128334;23;20025;-90
2021/04/28 08:05:27;;;;;;;6.63;4.00;;;10.60;73.20;;;;;;6127947;23;20021;-92
2021/04/28 08:07:54;;;;;;;7.35;3.47;;;10.70;73.60;;;;;;6127533;23;20018;-90
2021/04/28 08:10:20;;;;;;;9.52;3.70;;;10.80;72.70;;;;;;6128274;23;20014;-92
2021/04/28 08:12:48;;;;;;;8.18;3.80;;;10.90;72.10;;;;;;6127654;23;20130;-91
2021/04/28 08:15:22;;;;;;;6.97;3.80;;;10.90;71.80;;;;;;6127759;23;20046;-93
2021/04/28 08:18:02;;;;;;;;;;;11.10;72.10;;;;;;6128522;23;20029;-92
2021/04/28 08:20:57;;;;;;;7.78;3.85;;;11.10;72.30;;;;;;6130588;23;19995;-94
2021/04/28 08:23:29;;;;;;;7.38;3.72;;;11.20;72.20;;;;;;6131792;23;20021;-92
2021/04/28 08:26:02;;;;;;;9.10;3.90;;;11.30;71.50;;;;;;6129373;23;20022;-91
2021/04/28 08:28:49;;;;;;;5.68;3.45;;;11.40;70.30;;;;;;6125652;23;20312;-91
2021/04/28 08:31:24;;;;;;;6.18;3.92;;;11.50;70.40;;;;;;6128830;23;20018;-92
2021/04/28 08:33:50;;;;;;;7.63;3.47;;;11.60;71.00;;;;;;6129798;23;20018;-92
2021/04/28 08:36:16;;;;;;;7.13;3.47;;;11.80;71.20;;;;;;6129313;23;20029;-92
2021/04/28 08:38:53;;;;;;;5.90;3.20;;;11.80;71.20;;;;;;6129829;23;20014;-92
2021/04/28 08:41:23;;;;;;;5.45;3.35;;;12.00;70.50;;;;;;6129167;23;20026;-92
2021/04/28 08:43:49;;;;;;;7.85;4.07;;;12.10;71.00;;;;;;6130041;23;20018;-93
2021/04/28 08:46:21;;;;;;;7.47;4.00;;;12.20;70.90;;;;;;6129055;23;20081;-91
2021/04/28 08:48:53;;;;;;;8.73;4.10;;;12.30;70.20;;;;;;6129358;23;20018;-93
2021/04/28 08:51:19;;;;;;;7.28;4.13;;;12.40;69.90;;;;;;6128870;23;20046;-93
2021/04/28 08:54:04;;;;;;;7.28;4.22;;;12.50;70.50;;;;;;6128516;23;20029;-91
2021/04/28 08:56:54;;;;;;;8.20;4.45;;;12.50;70.70;;;;;;6128907;23;20018;-91
2021/04/28 08:59:21;;;;;;;6.90;4.03;;;12.70;70.20;;;;;;6128854;23;20054;-92
2021/04/28 09:01:49;;;;;;;9.23;3.97;;;12.80;70.00;;;;;;6103097;23;20014;-92
2021/04/28 09:04:27;;;;;;;8.57;4.25;;;12.90;70.00;;;;;;6129368;23;20021;-89
2021/04/28 09:06:53;;;;;;;7.65;3.85;;;13.00;70.40;;;;;;6127063;23;20017;-90
2021/04/28 09:09:27;;;;;;;7.50;3.60;;;13.10;68.90;;;;;;6125854;23;20029;-89
2021/04/28 09:11:54;;;;;;;7.70;4.15;;;13.20;68.40;;;;;;6127750;23;20446;-91
2021/04/28 09:14:28;;;;;;;7.40;4.00;;;13.30;66.70;;;;;;6128340;23;20341;-91
2021/04/28 09:16:54;;;;;;;8.48;4.13;;;13.40;66.20;;;;;;6127054;23;20022;-89
2021/04/28 09:19:28;;;;;;;8.10;4.13;;;13.50;66.60;;;;;;6126179;23;20026;-90
2021/04/28 09:21:58;;;;;;;8.10;3.90;;;13.60;67.10;;;;;;6126302;23;20014;-87
2021/04/28 09:24:31;;;;;;;7.18;4.30;;;13.70;67.20;;;;;;6125924;23;20477;-88
2021/04/28 09:26:59;;;;;;;8.48;4.35;;;13.80;67.60;;;;;;6126610;23;20521;-88
2021/04/28 09:29:50;;;;;;;5.95;3.55;;;13.90;67.30;;;;;;6126397;23;20014;-87
2021/04/28 09:32:16;;;;;;;8.48;3.90;;;14.00;65.80;;;;;;6127313;23;20068;-86
2021/04/28 09:34:48;;;;;;;7.65;3.78;;;14.00;63.30;;;;;;6126443;23;20330;-86
2021/04/28 09:37:23;;;;;;;8.27;4.18;;;14.20;63.00;;;;;;6126026;23;20018;-87
2021/04/28 09:39:51;;;;;;;9.80;4.03;;;14.30;65.40;;;;;;6125354;23;20398;-87
2021/04/28 09:42:22;;;;;;;8.02;4.05;;;14.30;65.50;;;;;;6125024;23;20026;-86
2021/04/28 09:44:51;;;;;;;6.88;4.03;;;14.40;63.30;;;;;;6125030;23;20435;-86
2021/04/28 09:47:22;;;;;;;9.88;3.88;;;14.60;64.20;;;;;;6126398;23;20022;-86
2021/04/28 09:49:56;;;;;;;7.88;3.88;;;14.70;63.50;;;;;;6126040;23;20024;-87
2021/04/28 09:52:31;;;;;;;9.80;3.97;;;14.80;65.20;;;;;;6125494;23;20391;-85
2021/04/28 09:55:02;;;;;;;7.22;3.78;;;14.90;65.90;;;;;;6126404;23;20018;-88
2021/04/28 09:57:43;;;;;;;8.02;3.70;;;14.90;65.20;;;;;;6125425;23;20018;-85
2021/04/28 10:00:20;;;;;;;8.93;4.22;;;15.10;64.50;;;;;;6116975;23;20018;-88
2021/04/28 10:02:57;;;;;;;6.60;3.88;;;15.20;65.30;;;;;;6125076;23;20338;-86
2021/04/28 10:05:25;;;;;;;6.90;3.75;;;15.30;65.10;;;;;;6125095;23;20521;-88
2021/04/28 10:08:07;;;;;;;7.00;3.90;;;15.40;65.20;;;;;;6126209;23;20022;-87
2021/04/28 10:10:34;;;;;;;6.40;4.03;;;15.40;64.50;;;;;;6125108;23;20048;-85
2021/04/28 10:13:00;;;;;;;6.50;4.00;;;15.50;65.00;;;;;;6124614;23;20014;-85
2021/04/28 10:15:28;;;;;;;7.90;4.10;;;15.60;65.40;;;;;;6126250;23;20096;-87
2021/04/28 10:17:55;;;;;;;7.55;4.35;;;15.70;61.60;;;;;;6124410;23;20028;-82
2021/04/28 10:20:21;;;;;;;11.13;4.43;;;15.70;63.50;;;;;;6122845;23;20398;-83
2021/04/28 10:22:53;;;;;;;8.13;4.28;;;15.80;63.20;;;;;;6125691;23;20406;-86
2021/04/28 10:25:19;;;;;;;7.93;4.15;;;15.90;62.40;;;;;;6125336;23;20481;-88
2021/04/28 10:28:21;;;;;;;7.43;3.97;;;15.90;62.80;;;;;;6125799;23;20014;-89
2021/04/28 10:31:04;;;;;;;6.88;4.30;;;16.00;63.10;;;;;;5979817;24;20028;-88
2021/04/28 10:33:59;;;;;;;9.68;4.15;;;16.10;63.30;;;;;;6029551;23;20029;-84
2021/04/28 10:36:25;;;;;;;6.30;4.25;;;16.10;64.10;;;;;;6125439;23;20454;-83
2021/04/28 10:38:56;;;;;;;6.43;4.43;;;16.20;63.90;;;;;;6125244;23;20028;-83
2021/04/28 10:41:35;;;;;;;7.03;4.43;;;16.30;63.70;;;;;;6124605;23;20025;-85
2021/04/28 10:44:01;;;;;;;9.73;4.85;;;16.40;62.40;;;;;;6124285;23;20021;-83
2021/04/28 10:46:38;;;;;;;8.98;5.07;;;16.50;62.80;;;;;;6123653;23;20022;-82
2021/04/28 10:53:02;;;;;;;8.25;4.70;;;16.60;59.50;;;;;;6125805;23;20024;-84
2021/04/28 10:55:57;;;;;;;6.70;4.35;;;16.60;62.00;;;;;;6126842;23;20102;-84
2021/04/28 10:58:35;;;;;;;7.85;4.57;;;16.70;62.50;;;;;;6124322;23;20385;-84
2021/04/28 11:01:07;;;;;;;6.97;4.80;;;16.80;63.50;;;;;;6123126;23;20548;-83
2021/04/28 11:04:16;;;;;;;9.55;4.68;;;16.90;62.30;;;;;;6127126;23;20346;-84
2021/04/28 11:06:48;;;;;;;8.75;5.18;;;16.90;62.30;;;;;;6127609;23;20041;-85
2021/04/28 11:09:29;;;;;;;7.45;5.20;;;17.10;63.00;;;;;;6126204;23;20097;-92
2021/04/28 11:11:59;;;;;;;7.60;4.68;;;17.20;62.40;;;;;;6128096;23;20022;-92
2021/04/28 11:14:45;;;;;;;8.55;4.90;;;17.20;62.80;;;;;;6127779;23;20014;-90
2021/04/28 11:17:19;;;;;;;6.80;4.43;;;17.30;62.90;;;;;;6127810;23;20260;-91
2021/04/28 11:19:47;;;;;;;6.45;4.47;;;17.30;62.60;;;;;;6127087;23;20073;-90
2021/04/28 11:22:18;;;;;;;8.25;5.18;;;17.40;61.80;;;;;;6127077;23;20024;-92
2021/04/28 11:25:24;;;;;;;8.57;5.28;;;17.50;60.90;;;;;;6128072;23;20069;-86
2021/04/28 11:28:11;;;;;;;7.20;4.95;;;17.60;62.20;;;;;;6127251;23;20089;-88
2021/04/28 11:30:37;;;;;;;9.45;5.20;;;17.60;61.00;;;;;;6126843;23;20024;-88
2021/04/28 11:33:25;;;;;;;6.85;4.95;;;17.70;61.30;;;;;;6127828;23;20393;-88
2021/04/28 11:35:54;;;;;;;7.43;5.40;;;17.80;61.20;;;;;;6126954;23;20117;-88
2021/04/28 11:38:25;;;;;;;9.60;5.63;;;17.90;62.80;;;;;;6126895;23;20354;-88
2021/04/28 11:40:54;;;;;;;8.65;5.65;;;17.90;60.70;;;;;;6127341;23;20048;-89
2021/04/28 11:43:37;;;;;;;10.57;5.40;;;18.00;59.40;;;;;;6128001;23;20018;-89
2021/04/28 11:46:23;;;;;;;;;;;18.00;58.80;;;;;;6128426;23;20080;-88
2021/04/28 11:49:00;;;;;;;8.23;5.82;;;18.00;61.60;;;;;;6127055;23;19924;-92
2021/04/28 11:51:31;;;;;;;7.93;5.60;;;18.10;61.40;;;;;;6130439;23;20357;-92
2021/04/28 11:53:59;;;;;;;7.78;5.28;;;18.20;60.60;;;;;;6130355;23;20040;-91
2021/04/28 11:56:41;;;;;;;8.95;5.80;;;18.20;59.90;;;;;;6128878;23;20089;-90
2021/04/28 11:59:37;;;;;;;10.68;5.75;;;18.30;59.40;;;;;;6127866;23;20025;-93
2021/04/28 12:02:04;;;;;;;11.13;5.50;;;18.40;60.90;;;;;;6128869;23;20028;-91
2021/04/28 12:04:49;;;;;;;8.23;5.47;;;18.40;60.10;;;;;;6121547;23;20018;-90
2021/04/28 12:07:17;;;;;;;11.82;5.65;;;18.40;60.00;;;;;;6127586;23;20022;-89
2021/04/28 12:13:24;;;;;;;8.88;5.50;;;18.50;61.20;;;;;;6119972;23;20029;-87
2021/04/28 12:15:53;;;;;;;8.30;6.05;;;18.60;61.00;;;;;;6117332;23;20577;-88
2021/04/28 12:18:32;;;;;;;9.48;6.18;;;18.70;61.40;;;;;;6125497;23;20033;-89
2021/04/28 12:21:04;;;;;;;9.10;6.20;;;18.80;60.30;;;;;;6127410;23;20029;-90
2021/04/28 12:23:32;;;;;;;9.60;5.97;;;18.80;60.60;;;;;;6127776;23;20021;-88
2021/04/28 12:29:21;;;;;;;9.80;5.93;;;18.90;58.90;;;;;;6125204;23;20109;-89
2021/04/28 12:32:06;;;;;;;10.27;6.10;;;19.00;60.70;;;;;;6069487;23;20353;-89
2021/04/28 12:34:31;;;;;;;9.70;5.97;;;19.00;60.20;;;;;;6156454;23;20018;-88
2021/04/28 12:37:09;;;;;;;8.20;5.80;;;19.00;58.90;;;;;;6129194;23;20017;-87
2021/04/28 12:39:53;;;;;;;9.88;5.85;;;19.10;60.20;;;;;;6155470;23;20072;-85
2021/04/28 12:42:55;;;;;;;11.10;5.82;;;19.10;59.70;;;;;;6156186;23;20092;-85
2021/04/28 12:45:27;;;;;;;7.60;5.57;;;19.20;60.30;;;;;;6008593;23;20019;-85
2021/04/28 12:48:20;;;;;;;8.27;5.40;;;19.20;59.80;;;;;;6007479;23;20020;-86
2021/04/28 12:55:29;;;;;;;;;;;;;;;;;;;;;
2021/04/28 12:58:27;;;;;;;9.18;6.20;;;19.30;58.50;;;;;;6091941;23;20041;-88
2021/04/28 13:04:51;;;;;;;9.73;5.70;;;19.30;59.20;;;;;;6155824;23;20072;-86
2021/04/28 13:07:24;;;;;;;10.70;6.15;;;19.40;59.00;;;;;;6155233;23;20017;-87
2021/04/28 13:16:46;;;;;;;8.90;6.32;;;19.40;56.50;;;;;;6062686;23;19971;-84
2021/04/28 13:19:21;;;;;;;11.70;6.68;;;19.50;60.50;;;;;;6126594;23;20014;-83
2021/04/28 13:32:35;;;;;;;9.00;6.40;;;19.70;58.20;;;;;;6125829;23;20069;-85
2021/04/28 13:35:39;;;;;;;10.48;7.10;;;19.70;59.50;;;;;;6125766;23;20022;-86
2021/04/28 13:38:53;;;;;;;;;;;19.70;60.20;;;;;;6126783;23;20060;-86
2021/04/28 13:41:22;;;;;;;9.30;7.00;;;19.70;60.00;;;;;;6126491;23;19917;-86
2021/04/28 13:43:54;;;;;;;8.95;6.10;;;19.80;59.70;;;;;;6125188;23;20130;-85
2021/04/28 13:46:37;;;;;;;8.18;6.40;;;19.80;59.10;;;;;;6126548;23;20116;-85
2021/04/28 13:52:39;;;;;;;8.98;6.10;;;19.80;57.70;;;;;;6111820;23;20331;-86
2021/04/28 13:55:09;;;;;;;10.10;7.13;;;19.90;58.30;;;;;;6126266;23;20026;-85
2021/04/28 13:57:36;;;;;;;9.55;6.85;;;19.90;59.60;;;;;;6125166;23;20085;-83